sensor_id;sensor_type;location;lat;lon;timestamp;pressure;altitude;pressure_sealevel;temperature;humidity
25944;BME280;13742;49.306;8.636;2023-03-13T00:00:09;99988.43;;;8.94;84.56
25944;BME280;13742;49.306;8.636;2023-03-13T00:01:10;99985.37;;;8.92;84.58
25944;BME280;13742;49.306;8.636;2023-03-13T00:02:08;99986.13;;;8.94;85.67
25944;BME280;13742;49.306;8.636;2023-03-13T00:03:08;99984.59;;;8.92;85.21
25944;BME280;13742;49.306;8.636;2023-03-13T00:04:08;99984.91;;;8.92;85.20
25944;BME280;13742;49.306;8.636;2023-03-13T00:05:08;99982.57;;;8.92;85.52
25944;BME280;13742;49.306;8.636;2023-03-13T00:06:08;99979.67;;;8.91;86.13
25944;BME280;13742;49.306;8.636;2023-03-13T00:07:09;99981.58;;;8.85;86.67
25944;BME280;13742;49.306;8.636;2023-03-13T00:08:08;99978.38;;;8.84;86.82
25944;BME280;13742;49.306;8.636;2023-03-13T00:09:09;99975.89;;;8.86;86.65
25944;BME280;13742;49.306;8.636;2023-03-13T00:10:08;99977.69;;;8.86;86.57
25944;BME280;13742;49.306;8.636;2023-03-13T00:11:09;99975.73;;;8.87;85.81
25944;BME280;13742;49.306;8.636;2023-03-13T00:12:08;99974.02;;;8.88;85.47
25944;BME280;13742;49.306;8.636;2023-03-13T00:13:08;99970.42;;;8.92;86.00
25944;BME280;13742;49.306;8.636;2023-03-13T00:14:08;99968.96;;;8.92;86.05
25944;BME280;13742;49.306;8.636;2023-03-13T00:15:08;99968.44;;;8.92;85.86
25944;BME280;13742;49.306;8.636;2023-03-13T00:16:12;99966.80;;;8.92;85.19
25944;BME280;13742;49.306;8.636;2023-03-13T00:17:08;99968.43;;;8.93;85.63
25944;BME280;13742;49.306;8.636;2023-03-13T00:18:08;99964.80;;;8.95;86.08
25944;BME280;13742;49.306;8.636;2023-03-13T00:19:08;99964.17;;;8.94;86.41
25944;BME280;13742;49.306;8.636;2023-03-13T00:20:09;99962.58;;;8.94;85.85
25944;BME280;13742;49.306;8.636;2023-03-13T00:21:08;99962.64;;;8.94;85.88
25944;BME280;13742;49.306;8.636;2023-03-13T00:22:08;99954.20;;;8.95;85.37
25944;BME280;13742;49.306;8.636;2023-03-13T00:23:08;99961.10;;;8.95;85.28
25944;BME280;13742;49.306;8.636;2023-03-13T00:24:09;99953.92;;;8.97;85.92
25944;BME280;13742;49.306;8.636;2023-03-13T00:25:08;99955.41;;;8.97;86.08
25944;BME280;13742;49.306;8.636;2023-03-13T00:26:09;99949.52;;;8.96;85.75
25944;BME280;13742;49.306;8.636;2023-03-13T00:27:08;99950.64;;;8.96;85.42
25944;BME280;13742;49.306;8.636;2023-03-13T00:28:08;99949.13;;;8.96;85.70
25944;BME280;13742;49.306;8.636;2023-03-13T00:29:08;99947.42;;;8.96;85.76
25944;BME280;13742;49.306;8.636;2023-03-13T00:30:09;99947.13;;;8.97;85.43
25944;BME280;13742;49.306;8.636;2023-03-13T00:31:09;99942.81;;;8.97;84.86
25944;BME280;13742;49.306;8.636;2023-03-13T00:32:08;99935.89;;;8.98;85.10
25944;BME280;13742;49.306;8.636;2023-03-13T00:33:08;99938.50;;;8.97;84.98
25944;BME280;13742;49.306;8.636;2023-03-13T00:34:09;99936.39;;;8.98;84.83
25944;BME280;13742;49.306;8.636;2023-03-13T00:35:08;99933.89;;;8.97;84.72
25944;BME280;13742;49.306;8.636;2023-03-13T00:36:12;99928.00;;;8.97;84.88
25944;BME280;13742;49.306;8.636;2023-03-13T00:37:08;99926.46;;;8.96;84.68
25944;BME280;13742;49.306;8.636;2023-03-13T00:38:08;99923.61;;;8.96;84.77
25944;BME280;13742;49.306;8.636;2023-03-13T00:39:08;99923.31;;;8.96;84.61
25944;BME280;13742;49.306;8.636;2023-03-13T00:40:08;99919.98;;;8.96;84.77
25944;BME280;13742;49.306;8.636;2023-03-13T00:41:11;99920.42;;;8.97;84.98
25944;BME280;13742;49.306;8.636;2023-03-13T00:42:08;99914.63;;;8.97;84.79
25944;BME280;13742;49.306;8.636;2023-03-13T00:43:08;99916.80;;;8.98;84.69
25944;BME280;13742;49.306;8.636;2023-03-13T00:44:08;99913.83;;;8.99;84.64
25944;BME280;13742;49.306;8.636;2023-03-13T00:45:08;99914.91;;;9.00;84.59
25944;BME280;13742;49.306;8.636;2023-03-13T00:46:08;99911.38;;;9.01;84.54
25944;BME280;13742;49.306;8.636;2023-03-13T00:47:08;99907.86;;;9.01;84.25
25944;BME280;13742;49.306;8.636;2023-03-13T00:48:08;99906.47;;;9.03;84.46
25944;BME280;13742;49.306;8.636;2023-03-13T00:49:08;99905.59;;;9.03;84.10
25944;BME280;13742;49.306;8.636;2023-03-13T00:50:08;99901.58;;;9.05;84.33
25944;BME280;13742;49.306;8.636;2023-03-13T00:51:08;99897.54;;;9.06;84.15
25944;BME280;13742;49.306;8.636;2023-03-13T00:52:08;99898.27;;;9.07;84.15
25944;BME280;13742;49.306;8.636;2023-03-13T00:53:08;99895.89;;;9.06;83.98
25944;BME280;13742;49.306;8.636;2023-03-13T00:54:08;99892.86;;;9.08;84.43
25944;BME280;13742;49.306;8.636;2023-03-13T00:55:08;99891.52;;;9.07;84.05
25944;BME280;13742;49.306;8.636;2023-03-13T00:56:10;99887.55;;;9.09;84.16
25944;BME280;13742;49.306;8.636;2023-03-13T00:57:08;99886.34;;;9.09;84.11
25944;BME280;13742;49.306;8.636;2023-03-13T00:58:08;99879.78;;;9.09;84.04
25944;BME280;13742;49.306;8.636;2023-03-13T00:59:08;99880.44;;;9.09;84.06
25944;BME280;13742;49.306;8.636;2023-03-13T01:00:09;99879.39;;;9.10;83.99
25944;BME280;13742;49.306;8.636;2023-03-13T01:01:09;99879.94;;;9.11;84.11
25944;BME280;13742;49.306;8.636;2023-03-13T01:02:08;99877.35;;;9.12;83.99
25944;BME280;13742;49.306;8.636;2023-03-13T01:03:08;99872.96;;;9.12;83.97
25944;BME280;13742;49.306;8.636;2023-03-13T01:04:09;99872.22;;;9.13;83.73
25944;BME280;13742;49.306;8.636;2023-03-13T01:05:08;99872.44;;;9.12;83.60
25944;BME280;13742;49.306;8.636;2023-03-13T01:06:09;99869.30;;;9.12;83.55
25944;BME280;13742;49.306;8.636;2023-03-13T01:07:08;99873.20;;;9.13;83.52
25944;BME280;13742;49.306;8.636;2023-03-13T01:08:08;99873.81;;;9.13;83.58
25944;BME280;13742;49.306;8.636;2023-03-13T01:09:10;99869.75;;;9.13;83.32
25944;BME280;13742;49.306;8.636;2023-03-13T01:10:09;99868.81;;;9.12;83.28
25944;BME280;13742;49.306;8.636;2023-03-13T01:12:08;99865.21;;;9.14;83.49
25944;BME280;13742;49.306;8.636;2023-03-13T01:13:08;99866.53;;;9.14;83.26
25944;BME280;13742;49.306;8.636;2023-03-13T01:14:09;99864.27;;;9.14;83.39
25944;BME280;13742;49.306;8.636;2023-03-13T01:15:09;99860.64;;;9.15;83.49
25944;BME280;13742;49.306;8.636;2023-03-13T01:16:09;99863.63;;;9.17;83.23
25944;BME280;13742;49.306;8.636;2023-03-13T01:17:08;99861.24;;;9.16;83.16
25944;BME280;13742;49.306;8.636;2023-03-13T01:18:08;99855.84;;;9.15;83.10
25944;BME280;13742;49.306;8.636;2023-03-13T01:19:09;99852.52;;;9.16;83.31
25944;BME280;13742;49.306;8.636;2023-03-13T01:20:08;99852.84;;;9.16;83.25
25944;BME280;13742;49.306;8.636;2023-03-13T01:21:08;99850.94;;;9.17;83.32
25944;BME280;13742;49.306;8.636;2023-03-13T01:22:11;99844.91;;;9.16;83.48
25944;BME280;13742;49.306;8.636;2023-03-13T01:23:08;99843.16;;;9.17;83.61
25944;BME280;13742;49.306;8.636;2023-03-13T01:24:08;99837.52;;;9.18;83.54
25944;BME280;13742;49.306;8.636;2023-03-13T01:25:08;99839.84;;;9.19;83.48
25944;BME280;13742;49.306;8.636;2023-03-13T01:26:08;99838.59;;;9.20;83.25
25944;BME280;13742;49.306;8.636;2023-03-13T01:27:08;99838.69;;;9.21;83.51
25944;BME280;13742;49.306;8.636;2023-03-13T01:28:08;99837.43;;;9.22;83.15
25944;BME280;13742;49.306;8.636;2023-03-13T01:29:08;99830.20;;;9.22;83.15
25944;BME280;13742;49.306;8.636;2023-03-13T01:30:09;99834.19;;;9.22;83.11
25944;BME280;13742;49.306;8.636;2023-03-13T01:32:08;99830.20;;;9.26;83.60
25944;BME280;13742;49.306;8.636;2023-03-13T01:33:08;99827.53;;;9.26;83.79
25944;BME280;13742;49.306;8.636;2023-03-13T01:34:09;99827.63;;;9.28;83.49
25944;BME280;13742;49.306;8.636;2023-03-13T01:35:08;99824.85;;;9.29;83.39
25944;BME280;13742;49.306;8.636;2023-03-13T01:36:08;99823.00;;;9.27;83.34
25944;BME280;13742;49.306;8.636;2023-03-13T01:37:08;99818.46;;;9.28;83.34
25944;BME280;13742;49.306;8.636;2023-03-13T01:38:08;99817.38;;;9.29;83.45
25944;BME280;13742;49.306;8.636;2023-03-13T01:39:08;99816.44;;;9.31;83.18
25944;BME280;13742;49.306;8.636;2023-03-13T01:40:09;99814.49;;;9.33;83.38
25944;BME280;13742;49.306;8.636;2023-03-13T01:41:10;99814.52;;;9.34;83.30
25944;BME280;13742;49.306;8.636;2023-03-13T01:42:08;99813.78;;;9.36;83.12
25944;BME280;13742;49.306;8.636;2023-03-13T01:44:17;99812.91;;;9.39;83.34
25944;BME280;13742;49.306;8.636;2023-03-13T01:45:48;99812.59;;;9.40;83.21
25944;BME280;13742;49.306;8.636;2023-03-13T01:47:08;99811.63;;;9.44;83.34
25944;BME280;13742;49.306;8.636;2023-03-13T01:48:08;99808.25;;;9.44;83.19
25944;BME280;13742;49.306;8.636;2023-03-13T01:49:09;99810.75;;;9.47;83.21
25944;BME280;13742;49.306;8.636;2023-03-13T01:50:08;99806.36;;;9.46;82.92
25944;BME280;13742;49.306;8.636;2023-03-13T01:52:09;99804.29;;;9.47;82.46
25944;BME280;13742;49.306;8.636;2023-03-13T01:53:08;99803.61;;;9.49;82.63
25944;BME280;13742;49.306;8.636;2023-03-13T01:54:09;99798.36;;;9.50;82.49
25944;BME280;13742;49.306;8.636;2023-03-13T01:55:09;99798.63;;;9.53;82.80
25944;BME280;13742;49.306;8.636;2023-03-13T01:56:10;99794.73;;;9.53;82.50
25944;BME280;13742;49.306;8.636;2023-03-13T01:58:08;99794.63;;;9.54;82.27
25944;BME280;13742;49.306;8.636;2023-03-13T01:59:09;99794.86;;;9.55;82.34
25944;BME280;13742;49.306;8.636;2023-03-13T02:00:12;99790.56;;;9.56;82.48
25944;BME280;13742;49.306;8.636;2023-03-13T02:01:08;99794.20;;;9.57;82.47
25944;BME280;13742;49.306;8.636;2023-03-13T02:02:08;99793.48;;;9.57;82.22
25944;BME280;13742;49.306;8.636;2023-03-13T02:03:10;99788.23;;;9.58;82.25
25944;BME280;13742;49.306;8.636;2023-03-13T02:04:08;99787.11;;;9.60;81.94
25944;BME280;13742;49.306;8.636;2023-03-13T02:05:08;99787.09;;;9.62;81.95
25944;BME280;13742;49.306;8.636;2023-03-13T02:06:09;99784.75;;;9.63;81.67
25944;BME280;13742;49.306;8.636;2023-03-13T02:07:09;99782.22;;;9.63;81.53
25944;BME280;13742;49.306;8.636;2023-03-13T02:08:13;99780.21;;;9.64;81.60
25944;BME280;13742;49.306;8.636;2023-03-13T02:09:09;99777.64;;;9.64;81.40
25944;BME280;13742;49.306;8.636;2023-03-13T02:10:08;99775.98;;;9.66;81.52
25944;BME280;13742;49.306;8.636;2023-03-13T02:12:09;99770.38;;;9.70;81.22
25944;BME280;13742;49.306;8.636;2023-03-13T02:13:13;99772.34;;;9.73;81.48
25944;BME280;13742;49.306;8.636;2023-03-13T02:14:08;99768.63;;;9.74;80.99
25944;BME280;13742;49.306;8.636;2023-03-13T02:15:12;99772.41;;;9.76;81.00
25944;BME280;13742;49.306;8.636;2023-03-13T02:16:08;99766.30;;;9.76;80.99
25944;BME280;13742;49.306;8.636;2023-03-13T02:17:08;99764.41;;;9.80;80.87
25944;BME280;13742;49.306;8.636;2023-03-13T02:18:08;99760.12;;;9.80;80.65
25944;BME280;13742;49.306;8.636;2023-03-13T02:20:08;99756.87;;;9.84;80.17
25944;BME280;13742;49.306;8.636;2023-03-13T02:21:17;99754.13;;;9.87;80.44
25944;BME280;13742;49.306;8.636;2023-03-13T02:22:15;99752.31;;;9.87;80.11
25944;BME280;13742;49.306;8.636;2023-03-13T02:23:27;99751.33;;;9.90;80.15
25944;BME280;13742;49.306;8.636;2023-03-13T02:24:12;99747.33;;;9.91;79.79
25944;BME280;13742;49.306;8.636;2023-03-13T02:25:13;99751.67;;;9.95;79.74
25944;BME280;13742;49.306;8.636;2023-03-13T02:26:08;99750.58;;;9.98;79.60
25944;BME280;13742;49.306;8.636;2023-03-13T02:27:08;99751.19;;;10.00;79.45
25944;BME280;13742;49.306;8.636;2023-03-13T02:28:12;99751.52;;;10.02;79.62
25944;BME280;13742;49.306;8.636;2023-03-13T02:29:08;99744.98;;;10.03;79.81
25944;BME280;13742;49.306;8.636;2023-03-13T02:30:09;99745.25;;;10.06;80.00
25944;BME280;13742;49.306;8.636;2023-03-13T02:31:08;99741.79;;;10.06;80.07
25944;BME280;13742;49.306;8.636;2023-03-13T02:32:08;99736.05;;;10.08;80.44
25944;BME280;13742;49.306;8.636;2023-03-13T02:33:08;99739.18;;;10.08;80.20
25944;BME280;13742;49.306;8.636;2023-03-13T02:34:08;99741.67;;;10.09;80.13
25944;BME280;13742;49.306;8.636;2023-03-13T02:35:09;99736.95;;;10.14;80.00
25944;BME280;13742;49.306;8.636;2023-03-13T02:36:08;99734.25;;;10.13;80.08
25944;BME280;13742;49.306;8.636;2023-03-13T02:37:11;99740.43;;;10.14;80.16
25944;BME280;13742;49.306;8.636;2023-03-13T02:38:09;99739.82;;;10.14;80.22
25944;BME280;13742;49.306;8.636;2023-03-13T02:39:08;99739.22;;;10.14;80.14
25944;BME280;13742;49.306;8.636;2023-03-13T02:40:09;99734.32;;;10.14;80.40
25944;BME280;13742;49.306;8.636;2023-03-13T02:41:08;99732.81;;;10.16;80.70
25944;BME280;13742;49.306;8.636;2023-03-13T02:42:08;99730.14;;;10.14;80.60
25944;BME280;13742;49.306;8.636;2023-03-13T02:43:13;99728.88;;;10.14;80.58
25944;BME280;13742;49.306;8.636;2023-03-13T02:44:08;99720.77;;;10.16;80.28
25944;BME280;13742;49.306;8.636;2023-03-13T02:45:09;99720.73;;;10.17;80.13
25944;BME280;13742;49.306;8.636;2023-03-13T02:46:10;99717.91;;;10.16;80.12
25944;BME280;13742;49.306;8.636;2023-03-13T02:47:08;99717.87;;;10.17;80.41
25944;BME280;13742;49.306;8.636;2023-03-13T02:48:08;99717.19;;;10.19;80.11
25944;BME280;13742;49.306;8.636;2023-03-13T02:50:10;99714.03;;;10.24;80.31
25944;BME280;13742;49.306;8.636;2023-03-13T02:51:13;99715.42;;;10.25;80.26
25944;BME280;13742;49.306;8.636;2023-03-13T02:52:18;99710.88;;;10.30;80.35
25944;BME280;13742;49.306;8.636;2023-03-13T02:53:08;99711.03;;;10.30;80.29
25944;BME280;13742;49.306;8.636;2023-03-13T02:54:09;99710.67;;;10.32;80.27
25944;BME280;13742;49.306;8.636;2023-03-13T02:55:09;99710.66;;;10.38;80.47
25944;BME280;13742;49.306;8.636;2023-03-13T02:56:08;99712.42;;;10.39;80.57
25944;BME280;13742;49.306;8.636;2023-03-13T02:57:08;99710.36;;;10.41;80.21
25944;BME280;13742;49.306;8.636;2023-03-13T02:58:08;99705.56;;;10.40;80.36
25944;BME280;13742;49.306;8.636;2023-03-13T02:59:08;99701.79;;;10.42;80.51
25944;BME280;13742;49.306;8.636;2023-03-13T03:00:11;99699.30;;;10.45;80.19
25944;BME280;13742;49.306;8.636;2023-03-13T03:01:08;99697.41;;;10.48;80.08
25944;BME280;13742;49.306;8.636;2023-03-13T03:02:08;99692.26;;;10.53;80.15
25944;BME280;13742;49.306;8.636;2023-03-13T03:03:08;99691.92;;;10.53;80.11
25944;BME280;13742;49.306;8.636;2023-03-13T03:04:08;99693.95;;;10.60;80.11
25944;BME280;13742;49.306;8.636;2023-03-13T03:05:08;99683.83;;;10.57;80.02
25944;BME280;13742;49.306;8.636;2023-03-13T03:06:08;99690.57;;;10.58;80.00
25944;BME280;13742;49.306;8.636;2023-03-13T03:07:08;99689.52;;;10.57;79.96
25944;BME280;13742;49.306;8.636;2023-03-13T03:08:08;99690.33;;;10.58;80.33
25944;BME280;13742;49.306;8.636;2023-03-13T03:09:08;99693.03;;;10.61;80.98
25944;BME280;13742;49.306;8.636;2023-03-13T03:10:08;99688.37;;;10.62;81.11
25944;BME280;13742;49.306;8.636;2023-03-13T03:11:08;99686.36;;;10.65;80.96
25944;BME280;13742;49.306;8.636;2023-03-13T03:12:08;99684.96;;;10.67;81.24
25944;BME280;13742;49.306;8.636;2023-03-13T03:13:08;99683.95;;;10.70;81.37
25944;BME280;13742;49.306;8.636;2023-03-13T03:14:08;99672.73;;;10.71;80.77
25944;BME280;13742;49.306;8.636;2023-03-13T03:15:08;99679.13;;;10.71;80.86
25944;BME280;13742;49.306;8.636;2023-03-13T03:16:09;99673.58;;;10.72;80.82
25944;BME280;13742;49.306;8.636;2023-03-13T03:17:08;99669.78;;;10.73;81.04
25944;BME280;13742;49.306;8.636;2023-03-13T03:18:08;99671.91;;;10.76;80.97
25944;BME280;13742;49.306;8.636;2023-03-13T03:19:09;99671.28;;;10.77;81.43
25944;BME280;13742;49.306;8.636;2023-03-13T03:20:10;99668.73;;;10.82;81.67
25944;BME280;13742;49.306;8.636;2023-03-13T03:21:08;99666.55;;;10.83;80.92
25944;BME280;13742;49.306;8.636;2023-03-13T03:22:08;99670.89;;;10.83;81.26
25944;BME280;13742;49.306;8.636;2023-03-13T03:23:08;99665.38;;;10.85;81.68
25944;BME280;13742;49.306;8.636;2023-03-13T03:24:08;99663.60;;;10.86;81.36
25944;BME280;13742;49.306;8.636;2023-03-13T03:25:08;99666.13;;;10.89;81.74
25944;BME280;13742;49.306;8.636;2023-03-13T03:26:08;99663.44;;;10.94;81.99
25944;BME280;13742;49.306;8.636;2023-03-13T03:27:08;99663.55;;;10.95;81.56
25944;BME280;13742;49.306;8.636;2023-03-13T03:28:08;99661.98;;;11.03;81.94
25944;BME280;13742;49.306;8.636;2023-03-13T03:29:09;99658.67;;;11.02;82.18
25944;BME280;13742;49.306;8.636;2023-03-13T03:30:09;99661.16;;;11.03;81.97
25944;BME280;13742;49.306;8.636;2023-03-13T03:31:09;99654.89;;;11.04;82.04
25944;BME280;13742;49.306;8.636;2023-03-13T03:32:08;99654.70;;;11.07;81.96
25944;BME280;13742;49.306;8.636;2023-03-13T03:33:08;99655.05;;;11.07;82.04
25944;BME280;13742;49.306;8.636;2023-03-13T03:34:08;99653.03;;;11.05;81.91
25944;BME280;13742;49.306;8.636;2023-03-13T03:35:08;99656.33;;;11.04;82.08
25944;BME280;13742;49.306;8.636;2023-03-13T03:36:15;99660.54;;;11.07;82.58
25944;BME280;13742;49.306;8.636;2023-03-13T03:37:08;99658.35;;;11.07;82.55
25944;BME280;13742;49.306;8.636;2023-03-13T03:38:08;99661.55;;;11.08;82.58
25944;BME280;13742;49.306;8.636;2023-03-13T03:39:08;99662.59;;;11.09;82.11
25944;BME280;13742;49.306;8.636;2023-03-13T03:40:09;99660.95;;;11.10;82.65
25944;BME280;13742;49.306;8.636;2023-03-13T03:41:09;99655.41;;;11.10;82.31
25944;BME280;13742;49.306;8.636;2023-03-13T03:42:08;99660.58;;;11.10;82.47
25944;BME280;13742;49.306;8.636;2023-03-13T03:43:08;99659.87;;;11.10;83.16
25944;BME280;13742;49.306;8.636;2023-03-13T03:44:08;99655.13;;;11.11;83.09
25944;BME280;13742;49.306;8.636;2023-03-13T03:45:08;99652.77;;;11.12;83.25
25944;BME280;13742;49.306;8.636;2023-03-13T03:46:08;99651.09;;;11.10;82.97
25944;BME280;13742;49.306;8.636;2023-03-13T03:47:08;99656.31;;;11.18;83.77
25944;BME280;13742;49.306;8.636;2023-03-13T03:48:08;99651.63;;;11.17;83.30
25944;BME280;13742;49.306;8.636;2023-03-13T03:49:08;99659.52;;;11.20;83.29
25944;BME280;13742;49.306;8.636;2023-03-13T03:50:10;99655.88;;;11.24;83.45
25944;BME280;13742;49.306;8.636;2023-03-13T03:51:08;99653.45;;;11.24;83.42
25944;BME280;13742;49.306;8.636;2023-03-13T03:52:08;99655.71;;;11.24;83.56
25944;BME280;13742;49.306;8.636;2023-03-13T03:53:08;99647.33;;;11.23;83.58
25944;BME280;13742;49.306;8.636;2023-03-13T03:54:08;99651.40;;;11.23;83.64
25944;BME280;13742;49.306;8.636;2023-03-13T03:55:08;99652.78;;;11.24;84.33
25944;BME280;13742;49.306;8.636;2023-03-13T03:56:08;99650.69;;;11.23;83.88
25944;BME280;13742;49.306;8.636;2023-03-13T03:57:08;99644.11;;;11.21;83.67
25944;BME280;13742;49.306;8.636;2023-03-13T03:58:08;99646.68;;;11.19;83.71
25944;BME280;13742;49.306;8.636;2023-03-13T03:59:08;99647.08;;;11.20;84.43
25944;BME280;13742;49.306;8.636;2023-03-13T04:00:10;99647.80;;;11.23;84.93
25944;BME280;13742;49.306;8.636;2023-03-13T04:01:08;99653.49;;;11.29;84.61
25944;BME280;13742;49.306;8.636;2023-03-13T04:02:08;99651.10;;;11.33;85.32
25944;BME280;13742;49.306;8.636;2023-03-13T04:03:08;99647.20;;;11.41;85.26
25944;BME280;13742;49.306;8.636;2023-03-13T04:04:08;99643.14;;;11.41;85.13
25944;BME280;13742;49.306;8.636;2023-03-13T04:05:08;99637.02;;;11.39;85.16
25944;BME280;13742;49.306;8.636;2023-03-13T04:06:09;99641.11;;;11.37;85.01
25944;BME280;13742;49.306;8.636;2023-03-13T04:07:08;99650.42;;;11.36;85.14
25944;BME280;13742;49.306;8.636;2023-03-13T04:08:08;99651.84;;;11.36;85.76
25944;BME280;13742;49.306;8.636;2023-03-13T04:09:08;99654.84;;;11.36;85.81
25944;BME280;13742;49.306;8.636;2023-03-13T04:10:08;99654.61;;;11.42;86.55
25944;BME280;13742;49.306;8.636;2023-03-13T04:11:08;99653.73;;;11.42;86.51
25944;BME280;13742;49.306;8.636;2023-03-13T04:12:08;99646.84;;;11.42;85.91
25944;BME280;13742;49.306;8.636;2023-03-13T04:13:08;99647.95;;;11.41;86.37
25944;BME280;13742;49.306;8.636;2023-03-13T04:14:08;99650.98;;;11.42;87.22
25944;BME280;13742;49.306;8.636;2023-03-13T04:15:08;99648.94;;;11.41;87.11
25944;BME280;13742;49.306;8.636;2023-03-13T04:16:08;99662.84;;;11.45;87.87
25944;BME280;13742;49.306;8.636;2023-03-13T04:17:08;99654.32;;;11.46;88.07
25944;BME280;13742;49.306;8.636;2023-03-13T04:18:08;99655.68;;;11.44;87.57
25944;BME280;13742;49.306;8.636;2023-03-13T04:19:08;99657.70;;;11.48;88.46
25944;BME280;13742;49.306;8.636;2023-03-13T04:20:10;99651.57;;;11.47;88.21
25944;BME280;13742;49.306;8.636;2023-03-13T04:21:08;99655.05;;;11.47;88.41
25944;BME280;13742;49.306;8.636;2023-03-13T04:22:08;99640.42;;;11.46;88.38
25944;BME280;13742;49.306;8.636;2023-03-13T04:23:08;99641.34;;;11.44;88.48
25944;BME280;13742;49.306;8.636;2023-03-13T04:24:08;99635.91;;;11.44;88.71
25944;BME280;13742;49.306;8.636;2023-03-13T04:25:08;99633.20;;;11.43;88.84
25944;BME280;13742;49.306;8.636;2023-03-13T04:26:08;99625.84;;;11.43;88.76
25944;BME280;13742;49.306;8.636;2023-03-13T04:27:08;99635.84;;;11.44;88.89
25944;BME280;13742;49.306;8.636;2023-03-13T04:28:08;99631.30;;;11.43;88.36
25944;BME280;13742;49.306;8.636;2023-03-13T04:29:08;99631.63;;;11.42;88.53
25944;BME280;13742;49.306;8.636;2023-03-13T04:30:08;99625.20;;;11.43;89.20
25944;BME280;13742;49.306;8.636;2023-03-13T04:31:08;99636.70;;;11.42;88.73
25944;BME280;13742;49.306;8.636;2023-03-13T04:32:08;99617.70;;;11.42;89.42
25944;BME280;13742;49.306;8.636;2023-03-13T04:33:08;99617.53;;;11.41;88.74
25944;BME280;13742;49.306;8.636;2023-03-13T04:34:08;99616.40;;;11.40;89.18
25944;BME280;13742;49.306;8.636;2023-03-13T04:35:08;99623.15;;;11.41;89.48
25944;BME280;13742;49.306;8.636;2023-03-13T04:36:08;99627.78;;;11.41;89.58
25944;BME280;13742;49.306;8.636;2023-03-13T04:37:08;99634.13;;;11.43;90.24
25944;BME280;13742;49.306;8.636;2023-03-13T04:38:08;99631.28;;;11.47;90.06
25944;BME280;13742;49.306;8.636;2023-03-13T04:39:08;99621.00;;;11.48;89.66
25944;BME280;13742;49.306;8.636;2023-03-13T04:40:08;99622.94;;;11.49;90.02
25944;BME280;13742;49.306;8.636;2023-03-13T04:41:08;99615.48;;;11.48;89.53
25944;BME280;13742;49.306;8.636;2023-03-13T04:42:11;99617.89;;;11.47;89.38
25944;BME280;13742;49.306;8.636;2023-03-13T04:43:08;99619.00;;;11.46;90.03
25944;BME280;13742;49.306;8.636;2023-03-13T04:44:08;99612.86;;;11.43;89.52
25944;BME280;13742;49.306;8.636;2023-03-13T04:45:10;99618.71;;;11.44;89.72
25944;BME280;13742;49.306;8.636;2023-03-13T04:46:08;99610.82;;;11.43;90.16
25944;BME280;13742;49.306;8.636;2023-03-13T04:47:08;99611.13;;;11.42;89.73
25944;BME280;13742;49.306;8.636;2023-03-13T04:48:08;99607.39;;;11.41;89.78
25944;BME280;13742;49.306;8.636;2023-03-13T04:49:08;99610.97;;;11.42;89.99
25944;BME280;13742;49.306;8.636;2023-03-13T04:50:08;99609.09;;;11.41;89.34
25944;BME280;13742;49.306;8.636;2023-03-13T04:51:08;99610.45;;;11.40;89.56
25944;BME280;13742;49.306;8.636;2023-03-13T04:52:08;99606.63;;;11.41;89.81
25944;BME280;13742;49.306;8.636;2023-03-13T04:53:08;99606.66;;;11.40;90.00
25944;BME280;13742;49.306;8.636;2023-03-13T04:54:08;99603.67;;;11.39;89.55
25944;BME280;13742;49.306;8.636;2023-03-13T04:55:08;99601.13;;;11.38;89.33
25944;BME280;13742;49.306;8.636;2023-03-13T04:56:08;99604.82;;;11.37;89.60
25944;BME280;13742;49.306;8.636;2023-03-13T04:57:08;99605.05;;;11.38;89.92
25944;BME280;13742;49.306;8.636;2023-03-13T04:58:08;99608.67;;;11.38;89.59
25944;BME280;13742;49.306;8.636;2023-03-13T04:59:09;99606.95;;;11.37;89.90
25944;BME280;13742;49.306;8.636;2023-03-13T05:00:09;99604.20;;;11.35;89.69
25944;BME280;13742;49.306;8.636;2023-03-13T05:01:08;99607.30;;;11.38;90.06
25944;BME280;13742;49.306;8.636;2023-03-13T05:02:11;99601.78;;;11.36;89.71
25944;BME280;13742;49.306;8.636;2023-03-13T05:03:08;99604.77;;;11.39;89.93
25944;BME280;13742;49.306;8.636;2023-03-13T05:04:08;99608.84;;;11.38;89.69
25944;BME280;13742;49.306;8.636;2023-03-13T05:05:08;99608.73;;;11.36;89.45
25944;BME280;13742;49.306;8.636;2023-03-13T05:06:08;99607.61;;;11.36;89.61
25944;BME280;13742;49.306;8.636;2023-03-13T05:07:08;99614.52;;;11.36;89.69
25944;BME280;13742;49.306;8.636;2023-03-13T05:08:09;99617.39;;;11.39;89.62
25944;BME280;13742;49.306;8.636;2023-03-13T05:09:08;99615.16;;;11.40;89.66
25944;BME280;13742;49.306;8.636;2023-03-13T05:10:08;99616.67;;;11.39;89.11
25944;BME280;13742;49.306;8.636;2023-03-13T05:11:08;99607.53;;;11.38;89.27
25944;BME280;13742;49.306;8.636;2023-03-13T05:12:08;99606.46;;;11.37;89.10
25944;BME280;13742;49.306;8.636;2023-03-13T05:13:08;99602.21;;;11.36;88.75
25944;BME280;13742;49.306;8.636;2023-03-13T05:14:10;99601.89;;;11.35;88.68
25944;BME280;13742;49.306;8.636;2023-03-13T05:15:08;99600.02;;;11.36;89.03
25944;BME280;13742;49.306;8.636;2023-03-13T05:16:08;99608.34;;;11.37;89.24
25944;BME280;13742;49.306;8.636;2023-03-13T05:17:09;99607.02;;;11.35;89.34
25944;BME280;13742;49.306;8.636;2023-03-13T05:18:08;99608.66;;;11.35;89.48
25944;BME280;13742;49.306;8.636;2023-03-13T05:19:08;99609.48;;;11.36;89.51
25944;BME280;13742;49.306;8.636;2023-03-13T05:20:10;99607.16;;;11.36;89.32
25944;BME280;13742;49.306;8.636;2023-03-13T05:21:08;99607.78;;;11.37;89.47
25944;BME280;13742;49.306;8.636;2023-03-13T05:22:08;99605.08;;;11.37;89.72
25944;BME280;13742;49.306;8.636;2023-03-13T05:23:08;99600.47;;;11.38;89.70
25944;BME280;13742;49.306;8.636;2023-03-13T05:24:08;99600.47;;;11.38;89.63
25944;BME280;13742;49.306;8.636;2023-03-13T05:25:08;99603.44;;;11.38;89.52
25944;BME280;13742;49.306;8.636;2023-03-13T05:26:08;99602.06;;;11.38;89.74
25944;BME280;13742;49.306;8.636;2023-03-13T05:27:08;99609.94;;;11.38;89.80
25944;BME280;13742;49.306;8.636;2023-03-13T05:28:08;99607.14;;;11.37;89.30